Time;durP1;ratioP1;P1;durP2;ratioP2;P2;SDS_P1;SDS_P2;PMS_P1;PMS_P2;Temp;Humidity;BMP_temperature;BMP_pressure;BME280_temperature;BME280_humidity;BME280_pressure;Samples;Min_cycle;Max_cycle;Signal;HPM_P1;HPM_P2
2022/06/15 00:00:04;;;;;;;;;;;;;;;17.09;69.36;100607.66;5041006;28;1914;-94
2022/06/15 00:02:30;;;;;;;;;;;;;;;17.09;69.29;100606.81;5045921;28;2506;-94
2022/06/15 00:04:57;;;;;;;;;;;;;;;17.07;69.32;100611.72;5052345;28;1180;-94
2022/06/15 00:07:23;;;;;;;;;;;;;;;17.05;69.31;100600.25;5035530;28;1268;-94
2022/06/15 00:09:50;;;;;;;;;;;;;;;17.05;69.08;100602.97;5039202;28;1192;-94
2022/06/15 00:12:17;;;;;;;;;;;;;;;17.04;69.22;100596.72;5055665;28;2227;-93
2022/06/15 00:14:44;;;;;;;;;;;;;;;17.02;69.08;100599.69;5070138;28;2140;-94
2022/06/15 00:17:11;;;;;;;;;;;;;;;17.01;69.15;100600.78;5052554;28;1292;-94
2022/06/15 00:19:37;;;;;;;;;;;;;;;16.99;69.10;100600.22;5040780;28;1983;-94
2022/06/15 00:22:04;;;;;;;;;;;;;;;16.99;69.13;100607.56;5071737;28;2314;-94
2022/06/15 00:24:30;;;;;;;;;;;;;;;16.99;69.06;100607.56;5055407;28;1164;-94
2022/06/15 00:26:57;;;;;;;;;;;;;;;16.97;68.93;100610.56;5055286;28;1374;-94
2022/06/15 00:29:23;;;;;;;;;;;;;;;16.98;69.09;100608.66;5071777;28;1294;-94
2022/06/15 00:31:50;;;;;;;;;;;;;;;16.96;68.90;100606.19;5071418;28;1547;-93
2022/06/15 00:34:16;;;;;;;;;;;;;;;16.96;68.93;100608.09;5055853;28;1085;-94
2022/06/15 00:36:43;;;;;;;;;;;;;;;16.94;69.00;100611.09;5055326;28;1246;-94
2022/06/15 00:39:09;;;;;;;;;;;;;;;16.94;68.86;100611.09;5054759;28;1918;-94
2022/06/15 00:41:36;;;;;;;;;;;;;;;16.93;68.88;100612.13;5054688;28;1301;-94
2022/06/15 00:44:02;;;;;;;;;;;;;;;16.92;68.89;100615.94;5054699;28;1261;-94
2022/06/15 00:46:29;;;;;;;;;;;;;;;16.91;68.79;100613.47;5055050;28;1379;-94
2022/06/15 00:48:55;;;;;;;;;;;;;;;16.90;68.96;100623.53;5070754;28;2515;-94
2022/06/15 00:51:22;;;;;;;;;;;;;;;16.90;68.77;100618.09;5054665;28;1225;-94
2022/06/15 00:53:48;;;;;;;;;;;;;;;16.89;68.81;100621.09;5071751;28;1223;-94
2022/06/15 00:56:15;;;;;;;;;;;;;;;16.88;68.76;100619.44;5025494;28;1326190;-94
2022/06/15 00:58:41;;;;;;;;;;;;;;;16.87;68.76;100612.38;5048352;28;1525;-94
2022/06/15 01:01:08;;;;;;;;;;;;;;;16.87;68.64;100623.25;5048123;28;2574;-94
2022/06/15 01:03:35;;;;;;;;;;;;;;;16.85;68.59;100626.22;5038004;28;1208;-94
2022/06/15 01:06:01;;;;;;;;;;;;;;;16.84;68.80;100624.59;5048237;28;1040;-93
2022/06/15 01:08:28;;;;;;;;;;;;;;;16.83;68.62;100625.66;5056806;28;952;-93
2022/06/15 01:10:55;;;;;;;;;;;;;;;16.83;68.69;100631.13;5057456;28;2651;-93
2022/06/15 01:13:22;;;;;;;;;;;;;;;16.81;68.55;100633.25;5035380;28;1394;-93
2022/06/15 01:15:48;;;;;;;;;;;;;;;16.81;68.52;100630.53;5035973;28;1329;-94
2022/06/15 01:18:15;;;;;;;;;;;;;;;16.80;68.57;100631.63;5072151;28;1294;-94
2022/06/15 01:20:41;;;;;;;;;;;;;;;16.79;68.56;100635.41;5064366;28;2734;-94
2022/06/15 01:23:11;;;;;;;;;;;;;;;16.77;68.44;100630.25;5054187;28;1183;-94
2022/06/15 01:25:37;;;;;;;;;;;;;;;16.76;68.60;100630.50;5052233;28;1188;-94
2022/06/15 01:28:04;;;;;;;;;;;;;;;16.74;68.48;100628.00;5051803;28;1192;-94
2022/06/15 01:30:30;;;;;;;;;;;;;;;16.75;68.50;100639.72;5052942;28;2639;-94
2022/06/15 01:32:57;;;;;;;;;;;;;;;16.73;68.35;100641.84;5051711;28;1306;-94
2022/06/15 01:35:23;;;;;;;;;;;;;;;16.72;68.47;100640.22;5052207;28;1345;-94
2022/06/15 01:37:50;;;;;;;;;;;;;;;16.71;68.45;100635.88;5053155;28;1214;-94
2022/06/15 01:40:16;;;;;;;;;;;;;;;16.70;68.43;100639.66;5054865;28;1997;-94
2022/06/15 01:42:43;;;;;;;;;;;;;;;16.69;68.46;100629.88;5054859;28;1221;-94
2022/06/15 01:45:09;;;;;;;;;;;;;;;16.68;68.35;100637.22;5054732;28;1286;-94
2022/06/15 01:47:36;;;;;;;;;;;;;;;16.67;68.35;100640.16;5054588;28;1207;-94
2022/06/15 01:50:02;;;;;;;;;;;;;;;16.67;68.35;100637.44;5035133;28;1196;-94
2022/06/15 01:52:29;;;;;;;;;;;;;;;16.65;68.23;100635.00;5046585;28;1251;-94
2022/06/15 01:54:55;;;;;;;;;;;;;;;16.63;68.21;100634.44;5040237;28;1307;-94
2022/06/15 01:57:22;;;;;;;;;;;;;;;16.64;68.38;100640.69;5066820;28;1200;-94
2022/06/15 01:59:49;;;;;;;;;;;;;;;16.63;68.21;100636.34;5055599;28;1977;-94
2022/06/15 02:02:15;;;;;;;;;;;;;;;16.61;68.30;100639.31;5072524;28;1302;-94
2022/06/15 02:04:44;;;;;;;;;;;;;;;16.60;68.28;100634.13;5074495;28;1175;-94
2022/06/15 02:07:11;;;;;;;;;;;;;;;16.60;68.11;100639.56;5072577;28;1181;-94
2022/06/15 02:09:37;;;;;;;;;;;;;;;16.57;68.22;100641.72;5059000;28;1643;-94
2022/06/15 02:12:04;;;;;;;;;;;;;;;16.57;68.17;100641.72;5054407;28;1181;-94
2022/06/15 02:14:30;;;;;;;;;;;;;;;16.56;68.12;100642.81;5054882;28;1361;-94
2022/06/15 02:16:56;;;;;;;;;;;;;;;16.55;68.14;100638.44;5054441;28;1247;-93
2022/06/15 02:19:23;;;;;;;;;;;;;;;16.55;68.16;100654.75;5053818;28;2391;-94
2022/06/15 02:21:50;;;;;;;;;;;;;;;16.53;68.03;100646.03;5070934;28;1311;-94
2022/06/15 02:24:17;;;;;;;;;;;;;;;16.53;68.16;100650.63;5070826;28;1227;-94
2022/06/15 02:26:43;;;;;;;;;;;;;;;16.51;68.12;100655.53;5054070;28;1140;-93
2022/06/15 02:29:09;;;;;;;;;;;;;;;16.50;67.97;100657.44;5053892;28;1603;-93
2022/06/15 02:31:36;;;;;;;;;;;;;;;16.49;68.10;100658.50;5053998;28;1218;-93
2022/06/15 02:34:03;;;;;;;;;;;;;;;16.48;68.12;100658.75;5054247;28;1307;-93
2022/06/15 02:36:32;;;;;;;;;;;;;;;16.47;67.94;100657.09;5054366;28;1268;-93
2022/06/15 02:38:58;;;;;;;;;;;;;;;16.46;68.03;100660.91;5056949;28;2494;-93
2022/06/15 02:41:25;;;;;;;;;;;;;;;16.45;68.05;100659.28;5050550;28;1878;-93
2022/06/15 02:43:51;;;;;;;;;;;;;;;16.43;67.88;100670.38;5060343;28;1193;-93
2022/06/15 02:46:18;;;;;;;;;;;;;;;16.43;67.89;100664.94;5053892;28;1368;-93
2022/06/15 02:48:45;;;;;;;;;;;;;;;16.42;67.86;100667.94;5050665;28;1213;-93
2022/06/15 02:51:11;;;;;;;;;;;;;;;16.40;67.89;100664.66;5066782;28;1300;-93
2022/06/15 02:53:38;;;;;;;;;;;;;;;16.39;67.87;100666.56;5054653;28;1127;-93
2022/06/15 02:56:04;;;;;;;;;;;;;;;16.38;67.83;100662.16;5048470;28;2448;-93
2022/06/15 02:58:31;;;;;;;;;;;;;;;16.36;67.79;100661.63;5053705;28;1213;-93
2022/06/15 03:00:57;;;;;;;;;;;;;;;16.35;67.83;100668.97;5055048;28;1906;-93
2022/06/15 03:03:24;;;;;;;;;;;;;;;16.34;67.72;100670.03;5070274;28;1165;-93
2022/06/15 03:05:50;;;;;;;;;;;;;;;16.33;67.86;100670.28;5069618;28;1285;-93
2022/06/15 03:08:17;;;;;;;;;;;;;;;16.33;67.66;100673.81;5069863;28;2731;-93
2022/06/15 03:10:43;;;;;;;;;;;;;;;16.32;67.73;100663.19;5054190;28;1285;-93
2022/06/15 03:13:10;;;;;;;;;;;;;;;16.31;67.79;100665.09;5053622;28;1343;-93
2022/06/15 03:15:36;;;;;;;;;;;;;;;16.30;67.70;100665.38;5054748;28;1412;-93
2022/06/15 03:18:02;;;;;;;;;;;;;;;16.29;67.76;100663.69;5053697;28;2589;-93
2022/06/15 03:20:29;;;;;;;;;;;;;;;16.27;67.69;100666.69;5052858;28;2153;-93
2022/06/15 03:22:55;;;;;;;;;;;;;;;16.26;67.65;100670.47;5069833;28;1952;-93
2022/06/15 03:25:22;;;;;;;;;;;;;;;16.25;67.57;100663.41;5070435;28;1213;-93
2022/06/15 03:27:49;;;;;;;;;;;;;;;16.24;67.59;100664.50;5054542;28;2688;-93
2022/06/15 03:30:15;;;;;;;;;;;;;;;16.23;67.69;100665.53;5053723;28;1283;-93
2022/06/15 03:32:42;;;;;;;;;;;;;;;16.22;67.56;100663.91;5070146;28;1274;-93
2022/06/15 03:35:09;;;;;;;;;;;;;;;16.21;67.61;100665.00;5054401;28;1020;-92
2022/06/15 03:37:35;;;;;;;;;;;;;;;16.21;67.61;100669.63;5064461;28;1178;-93
2022/06/15 03:40:02;;;;;;;;;;;;;;;16.19;67.51;100664.41;5070177;28;1986;-93
2022/06/15 03:42:28;;;;;;;;;;;;;;;16.18;67.45;100670.09;5067068;28;1254;-93
2022/06/15 03:44:55;;;;;;;;;;;;;;;16.18;67.44;100670.94;5069833;28;2896;-93
2022/06/15 03:47:21;;;;;;;;;;;;;;;16.17;67.44;100669.28;5056307;28;1354;-92
2022/06/15 03:49:48;;;;;;;;;;;;;;;16.15;67.51;100674.16;5058262;28;941;-93
2022/06/15 03:52:14;;;;;;;;;;;;;;;16.15;67.49;100673.31;5057106;28;1310;-93
2022/06/15 03:54:41;;;;;;;;;;;;;;;16.14;67.48;100667.06;5056547;28;2173;-93
2022/06/15 03:57:07;;;;;;;;;;;;;;;16.12;67.40;100672.78;5056631;28;1361;-93
2022/06/15 03:59:34;;;;;;;;;;;;;;;16.12;67.46;100671.97;5055907;28;1278;-92
2022/06/15 04:02:00;;;;;;;;;;;;;;;16.11;67.43;100671.09;5038684;28;1985;-93
2022/06/15 04:04:27;;;;;;;;;;;;;;;16.10;67.33;100676.81;5061506;28;2287;-93
2022/06/15 04:06:53;;;;;;;;;;;;;;;16.08;67.37;100682.47;5057000;28;1341;-92
2022/06/15 04:09:21;;;;;;;;;;;;;;;16.06;67.34;100673.78;5049656;28;2210;-93
2022/06/15 04:11:59;;;;;;;;;;;;;;;16.06;67.35;100681.94;5072955;28;1387;-93
2022/06/15 04:14:26;;;;;;;;;;;;;;;16.04;67.33;100678.66;5036788;28;2292;-92
2022/06/15 04:16:54;;;;;;;;;;;;;;;16.03;67.42;100671.56;5037016;28;1294;-93
2022/06/15 04:19:21;;;;;;;;;;;;;;;16.03;67.34;100678.88;5037549;28;969;-92
2022/06/15 04:21:47;;;;;;;;;;;;;;;16.02;67.36;100683.50;5044006;28;1977;-92
2022/06/15 04:24:14;;;;;;;;;;;;;;;16.01;67.38;100681.06;5056180;28;1810;-93
2022/06/15 04:26:40;;;;;;;;;;;;;;;16.00;67.31;100676.66;5049197;28;1258;-93
2022/06/15 04:29:06;;;;;;;;;;;;;;;15.98;67.38;100687.00;5047330;28;1151;-93
2022/06/15 04:31:33;;;;;;;;;;;;;;;15.98;67.37;100689.72;5073259;28;1177;-93
2022/06/15 04:34:00;;;;;;;;;;;;;;;15.97;67.26;100690.75;5057279;28;2676;-93
2022/06/15 04:36:27;;;;;;;;;;;;;;;15.95;67.31;100692.94;5042381;28;2703;-93
2022/06/15 04:38:53;;;;;;;;;;;;;;;15.94;67.34;100700.22;5072944;28;1152;-93
2022/06/15 04:41:20;;;;;;;;;;;;;;;15.95;67.20;100698.34;5056249;28;1979;-92
2022/06/15 04:43:46;;;;;;;;;;;;;;;15.94;67.09;100697.50;5072834;28;1314;-93
2022/06/15 04:46:13;;;;;;;;;;;;;;;15.93;67.17;100693.16;5072750;28;1203;-92
2022/06/15 04:48:40;;;;;;;;;;;;;;;15.93;67.12;100695.06;5072480;28;1356;-92
2022/06/15 04:51:06;;;;;;;;;;;;;;;15.94;67.15;100699.41;5072708;28;1318;-93
2022/06/15 04:53:33;;;;;;;;;;;;;;;15.93;67.07;100697.78;5072145;28;2231;-93
2022/06/15 04:55:59;;;;;;;;;;;;;;;15.93;67.06;100697.78;5072325;28;1288;-93
2022/06/15 04:58:26;;;;;;;;;;;;;;;15.92;67.19;100698.88;5062810;28;1467;-92
2022/06/15 05:00:52;;;;;;;;;;;;;;;15.91;67.01;100695.31;5036022;28;1918;-92
2022/06/15 05:03:19;;;;;;;;;;;;;;;15.90;67.00;100697.19;5051208;28;1043;-93
2022/06/15 05:05:46;;;;;;;;;;;;;;;15.90;67.01;100697.19;5072555;28;1340;-92
2022/06/15 05:08:13;;;;;;;;;;;;;;;15.88;66.98;100696.66;5071744;28;1285;-93
2022/06/15 05:10:39;;;;;;;;;;;;;;;15.89;66.91;100697.47;5052560;28;1224;-93
2022/06/15 05:13:06;;;;;;;;;;;;;;;15.88;66.91;100704.81;5061617;28;2454;-92
2022/06/15 05:15:32;;;;;;;;;;;;;;;15.87;66.88;100697.72;5055321;28;1325;-93
2022/06/15 05:17:59;;;;;;;;;;;;;;;15.87;66.83;100697.72;5055936;28;1259;-92
2022/06/15 05:20:25;;;;;;;;;;;;;;;15.87;66.81;100702.31;5071555;28;1993;-92
2022/06/15 05:22:52;;;;;;;;;;;;;;;15.87;66.79;100705.03;5054837;28;2692;-92
2022/06/15 05:25:18;;;;;;;;;;;;;;;15.86;66.76;100706.13;5056605;28;952;-92
2022/06/15 05:27:45;;;;;;;;;;;;;;;15.86;66.82;100711.56;5055690;28;1207;-92
2022/06/15 05:30:12;;;;;;;;;;;;;;;15.85;66.79;100716.16;5071790;28;1284;-92
2022/06/15 05:32:39;;;;;;;;;;;;;;;15.85;66.78;100712.59;5052739;28;2388;-92
2022/06/15 05:35:05;;;;;;;;;;;;;;;15.85;66.65;100721.59;5072443;28;1211;-93
2022/06/15 05:37:32;;;;;;;;;;;;;;;15.83;66.68;100712.88;5056021;28;1028;-93
2022/06/15 05:39:58;;;;;;;;;;;;;;;15.84;66.72;100722.66;5055069;28;1164;-92
2022/06/15 05:42:28;;;;;;;;;;;;;;;15.83;66.83;100709.34;5054628;28;1906;-93
2022/06/15 05:44:55;;;;;;;;;;;;;;;15.83;66.68;100714.78;5054991;28;1320;-92
2022/06/15 05:47:21;;;;;;;;;;;;;;;15.82;66.74;100716.63;5054706;28;1219;-92
2022/06/15 05:49:48;;;;;;;;;;;;;;;15.82;66.74;100713.91;5053964;28;2740;-92
2022/06/15 05:52:14;;;;;;;;;;;;;;;15.82;66.79;100721.25;5051635;28;1251;-93
2022/06/15 05:54:41;;;;;;;;;;;;;;;15.81;66.57;100716.91;5069728;28;1291;-92
2022/06/15 05:57:07;;;;;;;;;;;;;;;15.80;66.43;100718.81;5054625;28;1273;-92
2022/06/15 05:59:34;;;;;;;;;;;;;;;15.79;66.59;100719.03;5054608;28;1231;-92
2022/06/15 06:02:00;;;;;;;;;;;;;;;15.79;66.57;100713.59;5034618;28;2710;-92
2022/06/15 06:04:27;;;;;;;;;;;;;;;15.79;66.51;100724.47;5063288;28;1188;-92
2022/06/15 06:06:53;;;;;;;;;;;;;;;15.79;66.38;100719.84;5071215;28;1173;-93
2022/06/15 06:09:20;;;;;;;;;;;;;;;15.78;66.19;100715.50;5045700;28;1050;-92
2022/06/15 06:11:46;;;;;;;;;;;;;;;15.79;66.44;100724.47;5061058;28;2296;-92
2022/06/15 06:14:13;;;;;;;;;;;;;;;15.79;66.23;100725.28;5071218;28;1183;-92
2022/06/15 06:16:39;;;;;;;;;;;;;;;15.78;66.45;100726.38;5071490;28;1299;-93
2022/06/15 06:19:06;;;;;;;;;;;;;;;15.78;66.37;100723.66;5070959;28;1203;-92
2022/06/15 06:21:32;;;;;;;;;;;;;;;15.78;66.37;100723.66;5065931;28;2347;-92
2022/06/15 06:23:59;;;;;;;;;;;;;;;15.77;66.30;100713.06;5067080;28;2435;-92
2022/06/15 06:26:26;;;;;;;;;;;;;;;15.77;66.19;100715.78;5070757;28;1283;-93
2022/06/15 06:28:52;;;;;;;;;;;;;;;15.77;66.12;100722.03;5054391;28;1821;-93
2022/06/15 06:31:20;;;;;;;;;;;;;;;15.77;66.09;100735.59;5054058;28;2649;-92
2022/06/15 06:33:46;;;;;;;;;;;;;;;15.77;66.11;100727.44;5053684;28;2066;-92
2022/06/15 06:36:13;;;;;;;;;;;;;;;15.77;66.19;100724.72;5036672;28;2576;-93
2022/06/15 06:38:39;;;;;;;;;;;;;;;15.77;66.08;100729.34;5054173;28;1222;-92
2022/06/15 06:41:06;;;;;;;;;;;;;;;15.77;66.17;100729.34;5053896;28;1965;-92
2022/06/15 06:43:32;;;;;;;;;;;;;;;15.77;66.05;100735.59;5053676;28;1179;-92
2022/06/15 06:45:59;;;;;;;;;;;;;;;15.77;66.03;100730.16;5059723;28;1316;-92
2022/06/15 06:48:25;;;;;;;;;;;;;;;15.77;65.98;100735.59;5070154;28;1383;-92
2022/06/15 06:50:52;;;;;;;;;;;;;;;15.77;66.06;100724.72;5046889;28;1171;-92
2022/06/15 06:53:19;;;;;;;;;;;;;;;15.77;66.10;100732.88;5070615;28;1191;-92
2022/06/15 06:55:45;;;;;;;;;;;;;;;15.77;66.05;100722.03;5056888;28;1384;-92
2022/06/15 06:58:12;;;;;;;;;;;;;;;15.77;65.97;100722.03;5073796;28;1198;-92
2022/06/15 07:00:38;;;;;;;;;;;;;;;15.78;65.87;100725.56;5042793;28;2051;-92
2022/06/15 07:03:05;;;;;;;;;;;;;;;15.78;65.95;100720.13;5065533;28;1269;-92
2022/06/15 07:05:32;;;;;;;;;;;;;;;15.79;65.90;100727.19;5060514;28;1314;-92
2022/06/15 07:07:58;;;;;;;;;;;;;;;15.78;65.84;100722.84;5073792;28;1280;-92
2022/06/15 07:10:26;;;;;;;;;;;;;;;15.78;65.84;100725.56;5056669;28;2518;-92
2022/06/15 07:12:53;;;;;;;;;;;;;;;15.79;65.87;100724.47;5056804;28;1290;-92
2022/06/15 07:15:19;;;;;;;;;;;;;;;15.78;65.98;100718.22;5057006;28;1195;-92
2022/06/15 07:17:46;;;;;;;;;;;;;;;15.78;65.93;100733.69;5048725;28;2186;-92
2022/06/15 07:20:12;;;;;;;;;;;;;;;15.78;65.88;100728.25;5073577;28;1207;-92
2022/06/15 07:22:39;;;;;;;;;;;;;;;15.79;65.90;100727.19;5058428;28;2686;-92
2022/06/15 07:25:05;;;;;;;;;;;;;;;15.79;65.92;100733.44;5078892;28;1181;-92
2022/06/15 07:27:31;;;;;;;;;;;;;;;15.79;65.94;100730.72;5078609;28;1311;-92
2022/06/15 07:29:59;;;;;;;;;;;;;;;15.80;65.89;100734.28;5060922;28;1262;-92
2022/06/15 07:32:25;;;;;;;;;;;;;;;15.80;65.85;100737.00;5067244;28;2141;-92
2022/06/15 07:34:52;;;;;;;;;;;;;;;15.80;66.00;100739.72;5077233;28;1211;-92
2022/06/15 07:37:18;;;;;;;;;;;;;;;15.80;65.94;100740.53;5054003;28;1984;-91
2022/06/15 07:39:45;;;;;;;;;;;;;;;15.80;65.92;100739.72;5068023;28;2596;-92
2022/06/15 07:42:11;;;;;;;;;;;;;;;15.80;65.91;100743.25;5060310;28;1969;-93
2022/06/15 07:44:38;;;;;;;;;;;;;;;15.80;65.98;100748.66;5077955;28;1930;-92
2022/06/15 07:49:55;;;;;;;;;;;;;;;15.80;65.95;100748.66;5068797;28;1207;-93
2022/06/15 07:52:22;;;;;;;;;;;;;;;15.81;66.01;100750.31;5064302;28;976;-92
2022/06/15 07:54:48;;;;;;;;;;;;;;;15.82;66.05;100753.84;5057983;28;1270;-93
2022/06/15 07:57:15;;;;;;;;;;;;;;;15.81;66.00;100753.03;5055630;28;2574;-94
2022/06/15 07:59:41;;;;;;;;;;;;;;;15.82;65.98;100762.81;5059354;28;2394;-93
2022/06/15 08:02:08;;;;;;;;;;;;;;;15.82;66.10;100757.38;5071876;28;2993;-93
2022/06/15 08:04:35;;;;;;;;;;;;;;;15.83;65.93;100763.66;5068008;28;1450;-92
2022/06/15 08:07:01;;;;;;;;;;;;;;;15.82;65.80;100761.97;5057921;28;2272;-94
2022/06/15 08:09:28;;;;;;;;;;;;;;;15.83;66.06;100758.22;5047424;28;1251;-93
2022/06/15 08:14:35;;;;;;;;;;;;;;;15.85;65.73;100761.47;5056116;28;1583;-93
2022/06/15 08:17:02;;;;;;;;;;;;;;;15.85;65.79;100759.63;5076377;28;1365;-94
2022/06/15 08:19:28;;;;;;;;;;;;;;;15.85;65.67;100754.19;5063920;28;1986;-93
2022/06/15 08:21:55;;;;;;;;;;;;;;;15.86;65.69;100755.81;5056250;28;1917;-93
2022/06/15 08:24:24;;;;;;;;;;;;;;;15.86;65.84;100758.53;5061985;28;2303;-94
2022/06/15 08:26:50;;;;;;;;;;;;;;;15.87;65.98;100759.34;5080266;28;1300;-94
2022/06/15 08:29:19;;;;;;;;;;;;;;;15.87;65.94;100754.72;5055038;28;2269;-94
2022/06/15 08:31:46;;;;;;;;;;;;;;;15.87;66.01;100760.16;5057701;28;2109;-93
2022/06/15 08:34:12;;;;;;;;;;;;;;;15.87;66.01;100746.59;5040446;28;2126;-93
2022/06/15 08:36:39;;;;;;;;;;;;;;;15.89;65.85;100757.22;5039308;28;1501;-93
2022/06/15 08:39:05;;;;;;;;;;;;;;;15.89;65.96;100751.78;5064632;28;1316;-94
2022/06/15 08:41:32;;;;;;;;;;;;;;;15.88;65.92;100748.25;5068975;28;1918;-93
2022/06/15 08:43:58;;;;;;;;;;;;;;;15.90;65.94;100756.13;5059176;28;1214;-93
2022/06/15 08:46:25;;;;;;;;;;;;;;;15.90;65.97;100750.69;5059554;28;1168;-93
2022/06/15 08:48:51;;;;;;;;;;;;;;;15.90;66.01;100748.81;5074459;28;1654;-94
2022/06/15 08:51:18;;;;;;;;;;;;;;;15.90;65.95;100737.94;5075885;28;1355;-93
2022/06/15 08:53:45;;;;;;;;;;;;;;;15.92;65.84;100745.03;5075875;28;1277;-93
2022/06/15 08:56:11;;;;;;;;;;;;;;;15.92;66.00;100739.59;5059005;28;1167;-94
2022/06/15 08:58:38;;;;;;;;;;;;;;;15.93;65.99;100736.63;5074561;28;2787;-94
2022/06/15 09:01:04;;;;;;;;;;;;;;;15.92;65.92;100735.00;5047618;28;1914;-93
2022/06/15 09:03:31;;;;;;;;;;;;;;;15.94;66.04;100732.00;5057598;28;2259;-93
2022/06/15 09:05:57;;;;;;;;;;;;;;;15.95;66.03;100733.66;5059106;28;1223;-94
2022/06/15 09:08:24;;;;;;;;;;;;;;;15.96;66.00;100730.69;5068293;28;2651;-94
2022/06/15 09:10:50;;;;;;;;;;;;;;;15.95;66.13;100737.19;5040478;28;1610;-94
2022/06/15 09:13:17;;;;;;;;;;;;;;;15.96;66.03;100736.13;5057650;28;1209;-93
2022/06/15 09:15:44;;;;;;;;;;;;;;;15.96;66.01;100735.31;5059725;28;2287;-93
2022/06/15 09:18:10;;;;;;;;;;;;;;;15.98;65.91;100741.31;5065273;28;2635;-93
2022/06/15 09:20:37;;;;;;;;;;;;;;;15.97;65.86;100734.22;5073123;28;1291;-93
2022/06/15 09:23:03;;;;;;;;;;;;;;;15.99;65.91;100729.38;5061469;28;1973;-93
2022/06/15 09:25:30;;;;;;;;;;;;;;;16.00;66.08;100725.56;5075008;28;1178;-93
2022/06/15 09:27:57;;;;;;;;;;;;;;;16.00;65.96;100726.41;5043938;28;2395;-94
2022/06/15 09:30:23;;;;;;;;;;;;;;;16.00;66.03;100726.41;5079805;28;1196;-94
2022/06/15 09:32:49;;;;;;;;;;;;;;;16.02;66.12;100731.56;5045248;28;2333;-94
2022/06/15 09:35:17;;;;;;;;;;;;;;;16.02;66.10;100726.16;5057290;28;2492;-93
2022/06/15 09:37:43;;;;;;;;;;;;;;;16.02;66.13;100718.81;5075380;28;1202;-93
2022/06/15 09:40:10;;;;;;;;;;;;;;;16.03;66.17;100714.19;5058374;28;1270;-94
2022/06/15 09:42:36;;;;;;;;;;;;;;;16.04;65.92;100710.44;5055401;28;1975;-93
2022/06/15 09:45:03;;;;;;;;;;;;;;;16.04;66.01;100707.72;5059504;28;1195;-93
2022/06/15 09:47:29;;;;;;;;;;;;;;;16.04;66.08;100708.53;5064738;28;2125;-93
2022/06/15 09:49:56;;;;;;;;;;;;;;;16.05;66.01;100706.63;5055048;28;1231;-93
2022/06/15 09:52:22;;;;;;;;;;;;;;;16.05;65.91;100707.44;5068575;28;1100;-94
2022/06/15 09:54:49;;;;;;;;;;;;;;;16.07;65.93;100707.19;5070301;28;2584;-93
2022/06/15 09:57:16;;;;;;;;;;;;;;;16.08;66.02;100703.41;5047754;28;2193;-94
2022/06/15 09:59:43;;;;;;;;;;;;;;;16.09;66.06;100705.06;5062161;28;1411;-94
2022/06/15 10:02:09;;;;;;;;;;;;;;;16.08;66.17;100697.97;5054769;28;1998;-94
2022/06/15 10:04:36;;;;;;;;;;;;;;;16.08;66.15;100698.78;5054708;28;2772;-94
2022/06/15 10:07:03;;;;;;;;;;;;;;;16.11;66.14;100711.03;5038257;28;1193;-94
2022/06/15 10:09:29;;;;;;;;;;;;;;;16.13;66.30;100715.16;5053253;28;1218;-94
2022/06/15 10:12:55;;;;;;;;;;;;;;;16.12;66.24;100704.56;5041742;28;1195;-94
2022/06/15 10:14:52;;;;;;;;;;;;;;;16.15;66.22;100705.91;5048342;28;2293;-93
2022/06/15 10:17:18;;;;;;;;;;;;;;;16.15;66.32;100711.34;5069770;28;2255;-93
2022/06/15 10:19:45;;;;;;;;;;;;;;;16.17;66.34;100711.94;5053705;28;2056;-93
2022/06/15 10:22:12;;;;;;;;;;;;;;;16.16;66.27;100702.16;5071602;28;1917;-93
2022/06/15 10:24:38;;;;;;;;;;;;;;;16.17;66.31;100698.34;5089106;28;1130;-93
2022/06/15 10:27:04;;;;;;;;;;;;;;;16.18;66.34;100699.97;5054682;28;2335;-93
2022/06/15 10:29:31;;;;;;;;;;;;;;;16.20;66.33;100697.84;5046261;28;2066;-93
2022/06/15 10:31:57;;;;;;;;;;;;;;;16.20;66.33;100695.13;5037431;28;1294;-93
2022/06/15 10:34:24;;;;;;;;;;;;;;;16.20;66.13;100698.66;5055327;28;1211;-93
2022/06/15 10:36:50;;;;;;;;;;;;;;;16.22;66.38;100692.97;5044902;28;2751;-92
2022/06/15 10:39:17;;;;;;;;;;;;;;;16.24;66.49;100704.44;5076621;28;1325;-93
2022/06/15 10:41:47;;;;;;;;;;;;;;;16.23;66.40;100700.88;5067064;28;1925;-93
2022/06/15 10:44:14;;;;;;;;;;;;;;;16.24;66.43;100697.09;5048756;28;1153;-93
2022/06/15 10:46:40;;;;;;;;;;;;;;;16.26;66.49;100691.38;5037988;28;1263;-93
2022/06/15 10:49:07;;;;;;;;;;;;;;;16.26;66.36;100700.34;5037438;28;1194;-91
2022/06/15 10:51:33;;;;;;;;;;;;;;;16.27;66.42;100699.31;5060154;28;1215;-92
2022/06/15 10:53:59;;;;;;;;;;;;;;;16.28;66.47;100687.34;5053299;28;1133;-92
2022/06/15 11:02:10;;;;;;;;;;;;;;;16.31;66.48;100694.19;5061882;28;1910;-92
2022/06/15 11:04:37;;;;;;;;;;;;;;;16.32;66.51;100693.09;5041332;28;1332;-92
2022/06/15 11:07:03;;;;;;;;;;;;;;;16.33;66.61;100690.13;5041398;28;1206;-93
2022/06/15 11:09:30;;;;;;;;;;;;;;;16.35;66.50;100692.56;5043605;28;1187;-92
2022/06/15 11:11:56;;;;;;;;;;;;;;;16.35;66.60;100688.00;5058092;28;1191;-92
2022/06/15 11:14:23;;;;;;;;;;;;;;;16.37;66.56;100690.44;5053909;28;1877;-92
2022/06/15 11:19:34;;;;;;;;;;;;;;;16.38;66.81;100686.63;5039952;28;2302;-93
2022/06/15 11:22:00;;;;;;;;;;;;;;;16.40;66.74;100686.41;5056825;28;1918;-92
2022/06/15 11:24:27;;;;;;;;;;;;;;;16.42;66.66;100684.25;5078154;28;972;-92
2022/06/15 11:26:55;;;;;;;;;;;;;;;16.43;66.76;100689.41;5076304;28;2282;-93
2022/06/15 11:29:22;;;;;;;;;;;;;;;16.44;66.78;100679.34;5052690;28;1289;-94
2022/06/15 11:31:49;;;;;;;;;;;;;;;16.46;66.83;100682.66;5057420;28;2224;-93
2022/06/15 11:34:15;;;;;;;;;;;;;;;16.46;66.90;100677.22;5057085;28;1183;-93
2022/06/15 11:36:42;;;;;;;;;;;;;;;16.48;66.88;100672.34;5059926;28;1894;-93
2022/06/15 11:39:09;;;;;;;;;;;;;;;16.49;66.83;100671.25;5060821;28;1193;-93
2022/06/15 11:41:35;;;;;;;;;;;;;;;16.51;66.98;100671.84;5060536;28;1332;-92
2022/06/15 11:44:02;;;;;;;;;;;;;;;16.52;67.04;100665.31;5077191;28;1914;-92
2022/06/15 11:46:28;;;;;;;;;;;;;;;16.53;67.05;100666.94;5077229;28;1247;-92
2022/06/15 11:48:55;;;;;;;;;;;;;;;16.55;67.02;100657.47;5075017;28;2577;-92
2022/06/15 11:51:22;;;;;;;;;;;;;;;16.55;66.82;100649.31;5054943;28;1364;-92
2022/06/15 11:53:49;;;;;;;;;;;;;;;16.56;67.04;100647.44;5057958;28;964;-92
2022/06/15 11:56:15;;;;;;;;;;;;;;;16.57;67.11;100651.78;5054177;28;2133;-93
2022/06/15 11:58:41;;;;;;;;;;;;;;;16.60;67.13;100653.16;5043521;28;2302;-93
2022/06/15 12:01:08;;;;;;;;;;;;;;;16.60;67.04;100643.09;5064018;28;2478;-93
2022/06/15 12:03:34;;;;;;;;;;;;;;;16.62;67.06;100645.56;5071180;28;2545;-93
2022/06/15 12:06:01;;;;;;;;;;;;;;;16.63;67.08;100645.31;5051594;28;2278;-91
2022/06/15 12:08:27;;;;;;;;;;;;;;;16.65;67.15;100634.16;5052735;28;2169;-93
2022/06/15 12:10:54;;;;;;;;;;;;;;;16.67;67.18;100645.59;5068825;28;2075;-94
2022/06/15 12:13:19;;;;;;;;;;;;;;;16.68;67.18;100642.66;5055061;28;2313;-94
2022/06/15 12:15:46;;;;;;;;;;;;;;;16.68;67.24;100639.94;5071328;28;2146;-94
2022/06/15 12:18:12;;;;;;;;;;;;;;;16.70;67.20;100636.94;5075536;28;2604;-94
2022/06/15 12:20:39;;;;;;;;;;;;;;;16.71;67.33;100642.13;5056949;28;1303;-94
2022/06/15 12:23:06;;;;;;;;;;;;;;;16.73;67.18;100642.66;5052213;28;2139;-94
2022/06/15 12:25:33;;;;;;;;;;;;;;;16.75;67.07;100643.25;5077104;28;1910;-94
2022/06/15 12:28:00;;;;;;;;;;;;;;;16.77;67.38;100643.84;5054707;28;2201;-96
2022/06/15 12:30:27;;;;;;;;;;;;;;;16.79;67.41;100638.13;5070099;28;2161;-95
2022/06/15 12:32:53;;;;;;;;;;;;;;;16.80;67.34;100637.88;5067491;28;1199;-95
2022/06/15 12:35:20;;;;;;;;;;;;;;;16.84;67.28;100645.53;5061246;28;2773;-95
2022/06/15 12:37:47;;;;;;;;;;;;;;;16.83;67.43;100644.72;5054950;28;2097;-94
2022/06/15 12:40:13;;;;;;;;;;;;;;;16.85;67.22;100642.53;5071735;28;2183;-94
2022/06/15 12:42:40;;;;;;;;;;;;;;;16.88;67.46;100643.91;5055940;28;1914;-95
2022/06/15 12:45:06;;;;;;;;;;;;;;;16.89;67.36;100649.13;5063410;28;1314;-95
2022/06/15 12:47:33;;;;;;;;;;;;;;;16.90;67.49;100648.03;5070050;28;1212;-95
2022/06/15 12:49:59;;;;;;;;;;;;;;;16.92;67.50;100642.34;5052793;28;2201;-95
2022/06/15 12:52:26;;;;;;;;;;;;;;;16.94;67.51;100642.88;5040243;28;2226;-94
2022/06/15 12:54:53;;;;;;;;;;;;;;;16.94;67.45;100646.44;5072272;28;2190;-95
2022/06/15 12:57:19;;;;;;;;;;;;;;;16.97;67.59;100642.34;5050572;28;2103;-96